createdAt,value
2023-02-20T00:02:25.689Z,96350.78
2023-02-20T00:04:55.607Z,96349.97
2023-02-20T00:07:25.685Z,96348.88
2023-02-20T00:09:55.503Z,96353.63
2023-02-20T00:12:25.644Z,96358.78
2023-02-20T00:14:55.493Z,96353.13
2023-02-20T00:17:28.462Z,96359.50
2023-02-20T00:19:58.825Z,96354.00
2023-02-20T00:22:29.560Z,96359.97
2023-02-20T00:24:59.752Z,96355.09
2023-02-20T00:27:29.963Z,96358.06
2023-02-20T00:29:59.925Z,96358.25
2023-02-20T00:32:32.377Z,96360.31
2023-02-20T00:35:05.016Z,96351.50
2023-02-20T00:37:35.349Z,96361.66
2023-02-20T00:40:05.191Z,96355.91
2023-02-20T00:42:35.127Z,96359.06
2023-02-20T00:45:05.070Z,96349.50
2023-02-20T00:47:37.528Z,96348.41
2023-02-20T00:50:09.652Z,96353.19
2023-02-20T00:52:39.877Z,96354.81
2023-02-20T00:55:10.438Z,96355.00
2023-02-20T00:57:41.775Z,96353.19
2023-02-20T01:00:20.370Z,96357.78
2023-02-20T01:02:52.888Z,96344.72
2023-02-20T01:05:23.484Z,96355.53
2023-02-20T01:07:55.403Z,96359.13
2023-02-20T01:10:25.425Z,96352.53
2023-02-20T01:12:55.224Z,96363.97
2023-02-20T01:15:25.515Z,96353.91
2023-02-20T01:17:58.077Z,96361.38
2023-02-20T01:20:28.075Z,96357.50
2023-02-20T01:22:57.954Z,96358.66
2023-02-20T01:25:28.241Z,96358.94
2023-02-20T01:27:58.377Z,96352.63
2023-02-20T01:30:28.310Z,96353.00
2023-02-20T01:33:00.787Z,96348.22
2023-02-20T01:35:33.361Z,96344.47
2023-02-20T01:38:06.582Z,96352.53
2023-02-20T01:40:38.138Z,96357.03
2023-02-20T01:43:08.186Z,96349.72
2023-02-20T01:45:40.523Z,96352.91
2023-02-20T01:48:23.255Z,96349.13
2023-02-20T01:50:58.982Z,96349.41
2023-02-20T01:53:32.999Z,96337.25
2023-02-20T01:56:08.068Z,96339.06
2023-02-20T01:58:43.107Z,96334.88
2023-02-20T02:01:14.972Z,96333.22
2023-02-20T02:03:52.817Z,96329.66
2023-02-20T02:06:22.871Z,96326.25
2023-02-20T02:08:53.054Z,96315.78
2023-02-20T02:11:27.940Z,96323.00
2023-02-20T02:13:58.961Z,96326.25
2023-02-20T02:16:41.988Z,96313.66
2023-02-20T02:19:41.582Z,96324.00
2023-02-20T02:22:36.595Z,96322.28
2023-02-20T02:25:25.234Z,96330.03
2023-02-20T02:28:36.015Z,96339.91
2023-02-20T02:31:31.890Z,96329.56
2023-02-20T02:34:49.828Z,96326.13
2023-02-20T02:37:30.884Z,96316.59
2023-02-20T02:40:07.484Z,96321.44
2023-02-20T02:42:47.288Z,96326.59
2023-02-20T02:45:25.427Z,96325.16
2023-02-20T02:48:04.325Z,96317.34
2023-02-20T02:50:39.032Z,96311.22
2023-02-20T02:53:16.565Z,96307.16
2023-02-20T02:55:46.486Z,96308.31
2023-02-20T02:58:21.356Z,96317.78
2023-02-20T03:01:00.260Z,96309.25
2023-02-20T03:03:36.134Z,96311.34
2023-02-20T03:06:13.071Z,96304.28
2023-02-20T03:08:50.260Z,96294.47
2023-02-20T03:11:23.455Z,96295.91
2023-02-20T03:14:12.315Z,96315.34
2023-02-20T03:16:50.105Z,96318.78
2023-02-20T03:19:28.619Z,96318.31
2023-02-20T03:22:02.273Z,96319.75
2023-02-20T03:24:55.292Z,96307.06
2023-02-20T03:27:43.190Z,96307.56
2023-02-20T03:30:22.231Z,96311.19
2023-02-20T03:33:11.954Z,96307.28
2023-02-20T03:36:00.440Z,96303.44
2023-02-20T03:38:49.880Z,96306.47
2023-02-20T03:41:39.378Z,96309.44
2023-02-20T03:44:12.880Z,96301.16
2023-02-20T03:46:48.280Z,96308.97
2023-02-20T03:49:24.752Z,96306.91
2023-02-20T03:52:01.015Z,96303.28
2023-02-20T03:54:42.860Z,96310.31
2023-02-20T03:57:25.998Z,96310.41
2023-02-20T04:00:03.453Z,96309.50
2023-02-20T04:02:42.403Z,96316.59
2023-02-20T04:05:19.192Z,96319.50
2023-02-20T04:07:57.516Z,96315.97
2023-02-20T04:10:39.170Z,96311.72
2023-02-20T04:13:14.851Z,96317.69
2023-02-20T04:15:50.808Z,96319.16
2023-02-20T04:18:24.817Z,96320.78
2023-02-20T04:20:58.018Z,96324.59
2023-02-20T04:23:41.579Z,96324.50
2023-02-20T04:26:17.528Z,96317.84
2023-02-20T04:28:53.366Z,96314.31
2023-02-20T04:31:24.510Z,96313.66
2023-02-20T04:33:54.935Z,96313.56
2023-02-20T04:36:27.993Z,96313.69
2023-02-20T04:39:01.025Z,96313.75
2023-02-20T04:41:34.924Z,96312.50
2023-02-20T04:44:20.871Z,96311.03
2023-02-20T04:46:53.061Z,96310.22
2023-02-20T04:49:24.107Z,96308.94
2023-02-20T04:51:57.901Z,96311.44
2023-02-20T04:54:29.644Z,96306.09
2023-02-20T04:56:59.681Z,96308.66
2023-02-20T04:59:32.293Z,96305.22
2023-02-20T05:02:02.301Z,96303.31
2023-02-20T05:04:32.211Z,96301.19
2023-02-20T05:07:02.090Z,96295.50
2023-02-20T05:09:32.293Z,96302.41
2023-02-20T05:12:02.181Z,96304.22
2023-02-20T05:14:35.190Z,96307.78
2023-02-20T05:17:05.696Z,96297.06
2023-02-20T05:19:35.631Z,96302.25
2023-02-20T05:22:30.442Z,96295.91
2023-02-20T05:25:00.309Z,96301.78
2023-02-20T05:27:30.765Z,96311.22
2023-02-20T05:30:05.134Z,96321.66
2023-02-20T05:32:35.404Z,96322.84
2023-02-20T05:35:05.331Z,96329.84
2023-02-20T05:37:35.102Z,96329.25
2023-02-20T05:40:05.986Z,96323.41
2023-02-20T05:42:37.736Z,96324.53
2023-02-20T05:45:11.869Z,96330.41
2023-02-20T05:47:41.968Z,96327.47
2023-02-20T05:50:12.219Z,96319.66
2023-02-20T05:52:42.203Z,96330.09
2023-02-20T05:55:12.492Z,96327.34
2023-02-20T05:57:43.083Z,96330.22
2023-02-20T06:00:16.895Z,96326.00
2023-02-20T06:02:46.979Z,96326.34
2023-02-20T06:05:17.477Z,96327.66
2023-02-20T06:07:47.778Z,96329.59
2023-02-20T06:10:18.763Z,96328.63
2023-02-20T06:12:48.844Z,96335.78
2023-02-20T06:15:21.524Z,96343.44
2023-02-20T06:17:51.337Z,96351.06
2023-02-20T06:20:21.887Z,96354.31
2023-02-20T06:22:53.548Z,96346.34
2023-02-20T06:25:23.672Z,96348.09
2023-02-20T06:27:54.076Z,96351.66
2023-02-20T06:30:26.809Z,96356.81
2023-02-20T06:32:56.790Z,96352.19
2023-02-20T06:35:26.885Z,96360.44
2023-02-20T06:37:56.814Z,96357.03
2023-02-20T06:40:27.399Z,96355.56
2023-02-20T06:42:57.204Z,96357.66
2023-02-20T06:45:29.773Z,96352.19
2023-02-20T06:47:59.804Z,96355.47
2023-02-20T06:50:29.678Z,96356.72
2023-02-20T06:52:59.921Z,96355.22
2023-02-20T06:55:30.837Z,96363.28
2023-02-20T06:58:01.138Z,96359.28
2023-02-20T07:00:33.698Z,96353.59
2023-02-20T07:03:03.595Z,96348.56
2023-02-20T07:05:33.580Z,96349.59
2023-02-20T07:08:03.533Z,96353.00
2023-02-20T07:10:33.613Z,96354.00
2023-02-20T07:13:06.292Z,96358.06
2023-02-20T07:15:38.818Z,96359.59
2023-02-20T07:18:08.803Z,96350.28
2023-02-20T07:20:38.645Z,96353.94
2023-02-20T07:23:11.479Z,96364.25
2023-02-20T07:25:41.396Z,96369.69
2023-02-20T07:28:11.178Z,96371.81
2023-02-20T07:30:43.964Z,96369.31
2023-02-20T07:33:14.780Z,96375.13
2023-02-20T07:35:45.018Z,96375.13
2023-02-20T07:38:16.141Z,96372.81
2023-02-20T07:40:46.044Z,96376.63
2023-02-20T07:43:15.903Z,96378.59
2023-02-20T07:45:48.917Z,96372.06
2023-02-20T07:48:18.906Z,96365.25
2023-02-20T07:50:48.949Z,96363.50
2023-02-20T07:53:21.289Z,96359.09
2023-02-20T07:55:51.250Z,96347.59
2023-02-20T07:58:21.378Z,96344.66
2023-02-20T08:00:55.076Z,96331.78
2023-02-20T08:03:25.157Z,96335.56
2023-02-20T08:05:55.085Z,96338.72
2023-02-20T08:08:25.701Z,96337.13
2023-02-20T08:11:03.620Z,96339.94
2023-02-20T08:13:38.578Z,96328.63
2023-02-20T08:16:11.337Z,96322.63
2023-02-20T08:18:41.532Z,96321.50
2023-02-20T08:21:11.506Z,96316.81
2023-02-20T08:23:41.393Z,96322.94
2023-02-20T08:26:11.845Z,96318.28
2023-02-20T08:28:42.738Z,96315.25
2023-02-20T08:31:29.980Z,96310.94
2023-02-20T08:34:01.489Z,96320.31
2023-02-20T08:36:31.716Z,96312.84
2023-02-20T08:39:03.635Z,96306.53
2023-02-20T08:41:33.786Z,96305.75
2023-02-20T08:44:04.037Z,96309.31
2023-02-20T08:46:37.778Z,96297.63
2023-02-20T08:49:07.641Z,96292.97
2023-02-20T08:51:37.636Z,96296.81
2023-02-20T08:54:07.724Z,96295.72
2023-02-20T08:56:37.585Z,96295.53
2023-02-20T08:59:07.579Z,96293.56
2023-02-20T09:01:40.164Z,96296.63
2023-02-20T09:04:10.506Z,96298.53
2023-02-20T09:06:41.023Z,96291.16
2023-02-20T09:09:11.030Z,96280.75
2023-02-20T09:11:41.067Z,96281.59
2023-02-20T09:14:12.321Z,96272.88
2023-02-20T09:16:45.010Z,96267.34
2023-02-20T09:19:17.738Z,96262.00
2023-02-20T09:21:48.945Z,96263.19
2023-02-20T09:24:19.356Z,96264.88
2023-02-20T09:26:49.435Z,96272.28
2023-02-20T09:29:20.077Z,96265.03
2023-02-20T09:31:52.711Z,96267.94
2023-02-20T09:34:23.251Z,96273.19
2023-02-20T09:36:55.208Z,96286.56
2023-02-20T09:39:25.386Z,96283.88
2023-02-20T09:42:15.869Z,96270.00
2023-02-20T09:45:00.027Z,96276.78
2023-02-20T09:47:55.138Z,96268.78
2023-02-20T09:50:35.589Z,96268.81
2023-02-20T09:53:18.072Z,96256.44
2023-02-20T09:55:48.632Z,96248.28
2023-02-20T09:58:26.417Z,96240.56
2023-02-20T10:01:01.515Z,96234.44
2023-02-20T10:03:42.464Z,96231.06
2023-02-20T10:06:20.056Z,96229.63
2023-02-20T10:08:52.633Z,96229.97
2023-02-20T10:11:43.580Z,96231.13
2023-02-20T10:14:39.624Z,96204.91
2023-02-20T10:17:24.295Z,96214.19
2023-02-20T10:20:07.461Z,96217.72
2023-02-20T10:22:47.466Z,96217.34
2023-02-20T10:25:24.297Z,96220.28
2023-02-20T10:27:57.698Z,96216.56
2023-02-20T10:30:33.412Z,96216.97
2023-02-20T10:33:18.734Z,96205.78
2023-02-20T10:35:57.257Z,96198.03
2023-02-20T10:38:31.342Z,96196.56
2023-02-20T10:41:11.692Z,96195.75
2023-02-20T10:43:50.006Z,96184.84
2023-02-20T10:46:36.963Z,96185.09
2023-02-20T10:49:24.863Z,96181.22
2023-02-20T10:52:04.608Z,96174.47
2023-02-20T10:54:42.454Z,96179.28
2023-02-20T10:57:22.088Z,96178.56
2023-02-20T11:00:02.797Z,96161.59
2023-02-20T11:02:40.097Z,96157.72
2023-02-20T11:05:14.649Z,96157.78
2023-02-20T11:07:47.079Z,96155.28
2023-02-20T11:10:17.113Z,96158.59
2023-02-20T11:12:52.696Z,96138.94
2023-02-20T11:15:27.907Z,96130.94
2023-02-20T11:17:59.920Z,96133.59
2023-02-20T11:20:49.386Z,96137.44
2023-02-20T11:23:44.059Z,96124.63
2023-02-20T11:26:28.186Z,96111.72
2023-02-20T11:29:02.877Z,96122.66
2023-02-20T11:31:33.600Z,96127.28
2023-02-20T11:34:07.818Z,96126.06
2023-02-20T11:36:42.257Z,96124.66
2023-02-20T11:39:24.286Z,96123.69
2023-02-20T11:42:09.873Z,96109.94
2023-02-20T11:44:41.190Z,96114.72
2023-02-20T11:47:27.023Z,96110.63
2023-02-20T11:50:19.589Z,96103.16
2023-02-20T11:53:05.741Z,96084.44
2023-02-20T11:55:39.979Z,96077.94
2023-02-20T11:58:25.003Z,96088.66
2023-02-20T12:00:57.896Z,96085.94
2023-02-20T12:03:30.104Z,96087.22
2023-02-20T12:06:02.152Z,96077.59
2023-02-20T12:08:53.679Z,96067.91
2023-02-20T12:11:30.011Z,96072.56
2023-02-20T12:14:03.554Z,96064.94
2023-02-20T12:17:05.709Z,96059.50
2023-02-20T12:19:54.142Z,96055.28
2023-02-20T12:22:36.497Z,96054.09
2023-02-20T12:25:24.702Z,96053.53
2023-02-20T12:28:16.399Z,96055.78
2023-02-20T12:31:05.595Z,96051.28
2023-02-20T12:33:51.082Z,96051.97
2023-02-20T12:36:31.739Z,96050.28
2023-02-20T12:39:09.140Z,96038.75
2023-02-20T12:41:52.398Z,96035.00
2023-02-20T12:44:53.505Z,96035.44
2023-02-20T12:47:33.933Z,96022.59
2023-02-20T12:50:44.179Z,96028.69
2023-02-20T12:53:26.732Z,96011.84
2023-02-20T12:56:20.372Z,96012.03
2023-02-20T12:59:00.877Z,96002.63
2023-02-20T13:01:39.831Z,96007.59
2023-02-20T13:04:23.489Z,95998.06
2023-02-20T13:07:03.106Z,96000.38
2023-02-20T13:09:38.545Z,95996.69
2023-02-20T13:12:15.891Z,96002.44
2023-02-20T13:15:10.278Z,95998.63
2023-02-20T13:17:53.144Z,95992.00
2023-02-20T13:20:28.312Z,95995.31
2023-02-20T13:23:03.861Z,95998.63
2023-02-20T13:25:44.666Z,95997.28
2023-02-20T13:28:29.671Z,95999.19
2023-02-20T13:31:26.987Z,95984.63
2023-02-20T13:34:28.183Z,95985.75
2023-02-20T13:37:01.485Z,95982.69
2023-02-20T13:39:41.267Z,95976.34
2023-02-20T13:42:38.502Z,95988.53
2023-02-20T13:45:44.557Z,95986.13
2023-02-20T13:48:22.294Z,95979.91
2023-02-20T13:50:52.144Z,95979.22
2023-02-20T13:53:25.178Z,95976.72
2023-02-20T13:55:55.100Z,95967.63
2023-02-20T13:58:27.081Z,95966.25
2023-02-20T14:00:59.806Z,95951.31
2023-02-20T14:03:34.914Z,95957.19
2023-02-20T14:06:09.622Z,95953.41
2023-02-20T14:08:44.930Z,95949.50
2023-02-20T14:11:18.282Z,95949.84
2023-02-20T14:14:00.742Z,95944.78
2023-02-20T14:16:34.128Z,95945.72
2023-02-20T14:19:07.008Z,95940.88
2023-02-20T14:21:39.165Z,95933.78
2023-02-20T14:24:21.746Z,95941.13
2023-02-20T14:26:56.250Z,95937.31
2023-02-20T14:29:31.939Z,95934.84
2023-02-20T14:32:06.700Z,95930.22
2023-02-20T14:34:52.234Z,95920.16
2023-02-20T14:37:32.093Z,95915.41
2023-02-20T14:40:11.813Z,95914.59
2023-02-20T14:42:47.310Z,95913.78
2023-02-20T14:45:24.722Z,95907.22
2023-02-20T14:47:55.382Z,95907.59
2023-02-20T14:50:32.371Z,95901.09
2023-02-20T14:53:10.171Z,95893.13
2023-02-20T14:55:40.510Z,95894.72
2023-02-20T14:58:11.137Z,95887.94
2023-02-20T15:00:48.833Z,95890.03
2023-02-20T15:03:30.641Z,95881.19
2023-02-20T15:06:05.933Z,95874.94
2023-02-20T15:08:40.024Z,95881.66
2023-02-20T15:11:13.647Z,95882.88
2023-02-20T15:13:47.945Z,95877.25
2023-02-20T15:16:26.079Z,95876.19
2023-02-20T15:18:57.312Z,95872.34
2023-02-20T15:21:39.476Z,95867.31
2023-02-20T15:24:36.365Z,95856.91
2023-02-20T15:27:16.378Z,95852.16
2023-02-20T15:29:48.117Z,95861.47
2023-02-20T15:32:25.246Z,95865.06
2023-02-20T15:34:59.341Z,95860.72
2023-02-20T15:37:38.393Z,95854.25
2023-02-20T15:40:23.861Z,95845.44
2023-02-20T15:42:57.306Z,95843.34
2023-02-20T15:45:31.489Z,95837.72
2023-02-20T15:48:04.263Z,95841.25
2023-02-20T15:50:34.514Z,95841.06
2023-02-20T15:53:08.718Z,95842.28
2023-02-20T15:55:39.857Z,95837.88
2023-02-20T15:58:27.792Z,95838.00
2023-02-20T16:01:02.698Z,95842.13
2023-02-20T16:03:50.525Z,95839.88
2023-02-20T16:06:23.057Z,95836.91
2023-02-20T16:08:54.906Z,95832.69
2023-02-20T16:11:28.479Z,95831.09
2023-02-20T16:14:02.585Z,95832.25
2023-02-20T16:16:36.820Z,95828.94
2023-02-20T16:19:15.994Z,95826.41
2023-02-20T16:21:58.046Z,95825.50
2023-02-20T16:24:28.851Z,95819.94
2023-02-20T16:27:01.264Z,95825.09
2023-02-20T16:29:36.477Z,95825.66
2023-02-20T16:32:21.077Z,95827.47
2023-02-20T16:34:59.325Z,95826.41
2023-02-20T16:37:29.656Z,95827.75
2023-02-20T16:40:01.311Z,95819.84
2023-02-20T16:42:37.024Z,95824.03
2023-02-20T16:45:10.987Z,95841.97
2023-02-20T16:47:41.187Z,95843.56
2023-02-20T16:50:16.945Z,95834.81
2023-02-20T16:52:48.991Z,95834.81
2023-02-20T16:55:23.874Z,95832.09
2023-02-20T16:57:56.925Z,95831.84
2023-02-20T17:00:30.386Z,95829.91
2023-02-20T17:03:01.381Z,95827.13
2023-02-20T17:05:37.128Z,95835.03
2023-02-20T17:08:08.904Z,95844.81
2023-02-20T17:10:39.104Z,95838.34
2023-02-20T17:13:09.264Z,95839.59
2023-02-20T17:15:39.562Z,95846.25
2023-02-20T17:18:09.770Z,95857.94
2023-02-20T17:20:42.341Z,95860.47
2023-02-20T17:23:14.086Z,95858.13
2023-02-20T17:25:44.285Z,95855.50
2023-02-20T17:28:16.075Z,95860.00
2023-02-20T17:30:49.701Z,95864.31
2023-02-20T17:33:25.578Z,95860.13
2023-02-20T17:35:58.483Z,95855.28
2023-02-20T17:38:28.957Z,95868.84
2023-02-20T17:41:00.394Z,95855.81
2023-02-20T17:43:30.566Z,95857.69
2023-02-20T17:46:00.591Z,95859.72
2023-02-20T17:48:32.892Z,95863.16
2023-02-20T17:51:05.989Z,95870.88
2023-02-20T17:53:38.106Z,95874.22
2023-02-20T17:56:10.224Z,95874.88
2023-02-20T17:58:44.214Z,95874.28
2023-02-20T18:01:14.377Z,95873.91
2023-02-20T18:03:46.507Z,95874.56
2023-02-20T18:06:19.098Z,95882.03
2023-02-20T18:08:52.310Z,95881.06
2023-02-20T18:11:22.990Z,95878.72
2023-02-20T18:13:55.832Z,95871.69
2023-02-20T18:16:28.166Z,95878.97
2023-02-20T18:19:00.237Z,95868.06
2023-02-20T18:21:34.858Z,95876.59
2023-02-20T18:24:07.033Z,95873.03
2023-02-20T18:26:39.473Z,95871.84
2023-02-20T18:29:10.363Z,95869.06
2023-02-20T18:31:42.407Z,95861.59
2023-02-20T18:34:12.396Z,95857.38
2023-02-20T18:36:52.488Z,95861.03
2023-02-20T18:39:23.633Z,95859.25
2023-02-20T18:41:56.845Z,95856.81
2023-02-20T18:44:47.131Z,95852.16
2023-02-20T18:47:20.486Z,95861.03
2023-02-20T18:49:53.444Z,95852.44
2023-02-20T18:52:26.227Z,95838.50
2023-02-20T18:54:57.793Z,95849.16
2023-02-20T18:57:28.337Z,95850.78
2023-02-20T18:59:58.455Z,95843.16
2023-02-20T19:02:30.097Z,95838.72
2023-02-20T19:05:00.930Z,95842.34
2023-02-20T19:07:33.895Z,95840.31
2023-02-20T19:10:05.787Z,95830.84
2023-02-20T19:12:37.010Z,95826.44
2023-02-20T19:15:09.323Z,95823.81
2023-02-20T19:17:40.949Z,95819.97
2023-02-20T19:20:19.166Z,95821.56
2023-02-20T19:22:52.457Z,95825.00
2023-02-20T19:25:25.035Z,95821.78
2023-02-20T19:27:55.945Z,95824.59
2023-02-20T19:30:27.572Z,95812.31
2023-02-20T19:32:58.177Z,95809.09
2023-02-20T19:35:32.950Z,95808.09
2023-02-20T19:38:07.370Z,95814.94
2023-02-20T19:40:37.436Z,95807.69
2023-02-20T19:43:07.282Z,95798.44
2023-02-20T19:45:37.881Z,95797.41
2023-02-20T19:48:08.306Z,95803.47
2023-02-20T19:50:38.180Z,95796.22
2023-02-20T19:53:10.750Z,95792.41
2023-02-20T19:55:40.874Z,95798.44
2023-02-20T19:58:14.071Z,95806.88
2023-02-20T20:00:44.040Z,95810.31
2023-02-20T20:03:14.165Z,95798.44
2023-02-20T20:05:45.958Z,95791.00
2023-02-20T20:08:18.491Z,95790.16
2023-02-20T20:10:48.540Z,95785.34
2023-02-20T20:13:18.562Z,95786.94
2023-02-20T20:15:49.186Z,95785.75
2023-02-20T20:18:19.280Z,95785.34
2023-02-20T20:20:49.718Z,95789.19
2023-02-20T20:23:22.854Z,95779.91
2023-02-20T20:25:53.143Z,95784.75
2023-02-20T20:28:27.498Z,95784.13
2023-02-20T20:30:57.405Z,95780.91
2023-02-20T20:33:27.833Z,95775.88
2023-02-20T20:35:58.421Z,95779.09
2023-02-20T20:38:31.693Z,95770.88
2023-02-20T20:41:01.769Z,95768.44
2023-02-20T20:43:35.029Z,95772.84
2023-02-20T20:46:07.586Z,95769.66
2023-02-20T20:48:38.651Z,95771.84
2023-02-20T20:51:08.985Z,95765.63
2023-02-20T20:53:41.892Z,95761.78
2023-02-20T20:56:13.216Z,95762.22
2023-02-20T20:58:44.277Z,95763.59
2023-02-20T21:01:14.656Z,95761.00
2023-02-20T21:03:44.737Z,95760.78
2023-02-20T21:06:15.428Z,95769.84
2023-02-20T21:08:48.105Z,95783.53
2023-02-20T21:11:18.101Z,95787.75
2023-02-20T21:13:49.231Z,95793.59
2023-02-20T21:16:20.106Z,95791.97
2023-02-20T21:18:50.413Z,95798.38
2023-02-20T21:21:20.860Z,95801.59
2023-02-20T21:23:57.007Z,95791.88
2023-02-20T21:26:28.980Z,95795.63
2023-02-20T21:29:01.328Z,95804.66
2023-02-20T21:31:32.878Z,95801.19
2023-02-20T21:34:03.918Z,95799.53
2023-02-20T21:36:37.465Z,95803.72
2023-02-20T21:39:10.494Z,95804.50
2023-02-20T21:41:53.696Z,95797.19
2023-02-20T21:44:29.355Z,95795.09
2023-02-20T21:47:01.586Z,95801.09
2023-02-20T21:49:34.165Z,95805.06
2023-02-20T21:52:05.543Z,95794.63
2023-02-20T21:54:37.933Z,95798.66
2023-02-20T21:57:09.002Z,95793.69
2023-02-20T21:59:36.084Z,95796.06
2023-02-20T22:02:03.506Z,95783.84
2023-02-20T22:04:31.451Z,95790.81
2023-02-20T22:07:14.481Z,95792.22
2023-02-20T22:09:59.566Z,95787.00
2023-02-20T22:12:41.999Z,95786.63
2023-02-20T22:15:26.991Z,95786.25
2023-02-20T22:18:09.642Z,95794.09
2023-02-20T22:20:52.033Z,95797.06
2023-02-20T22:23:34.863Z,95794.97
2023-02-20T22:26:20.229Z,95790.38
2023-02-20T22:29:02.609Z,95783.63
2023-02-20T22:31:46.029Z,95786.06
2023-02-20T22:34:28.784Z,95790.47
2023-02-20T22:37:11.179Z,95790.66
2023-02-20T22:39:53.466Z,95784.84
2023-02-20T22:42:38.944Z,95792.53
2023-02-20T22:45:22.339Z,95788.28
2023-02-20T22:48:04.714Z,95787.31
2023-02-20T22:50:47.251Z,95788.28
2023-02-20T22:53:29.923Z,95788.47
2023-02-20T22:56:12.370Z,95785.84
2023-02-20T22:58:57.684Z,95786.06
2023-02-20T23:01:40.121Z,95789.47
2023-02-20T23:04:22.544Z,95787.84
2023-02-20T23:07:05.828Z,95789.28
2023-02-20T23:09:48.114Z,95792.28
2023-02-20T23:12:30.867Z,95793.88
2023-02-20T23:15:16.883Z,95796.50
2023-02-20T23:17:59.607Z,95795.63
2023-02-20T23:20:42.042Z,95804.03
2023-02-20T23:23:25.064Z,95800.56
2023-02-20T23:26:07.895Z,95799.75
2023-02-20T23:28:51.152Z,95807.31
2023-02-20T23:31:46.511Z,95809.72
2023-02-20T23:34:29.544Z,95813.94
2023-02-20T23:37:12.763Z,95815.94
2023-02-20T23:39:55.111Z,95808.47
2023-02-20T23:42:38.318Z,95802.63
2023-02-20T23:45:23.682Z,95806.25
2023-02-20T23:48:08.815Z,95813.44
2023-02-20T23:50:51.598Z,95806.59
2023-02-20T23:53:34.183Z,95809.75
2023-02-20T23:56:16.545Z,95814.75
2023-02-20T23:58:59.687Z,95820.97
